createdAt,value
2018-08-28T00:01:20.960Z,97587.52
2018-08-28T00:03:49.987Z,97588.30
2018-08-28T00:06:18.685Z,97587.30
2018-08-28T00:08:47.292Z,97594.09
2018-08-28T00:11:16.016Z,97592.98
2018-08-28T00:13:44.600Z,97585.53
2018-08-28T00:16:13.188Z,97596.51
2018-08-28T00:18:42.303Z,97598.00
2018-08-28T00:21:10.860Z,97593.63
2018-08-28T00:23:39.793Z,97595.80
2018-08-28T00:26:08.615Z,97599.73
2018-08-28T00:28:37.158Z,97602.56
2018-08-28T00:31:05.768Z,97609.47
2018-08-28T00:33:34.399Z,97603.79
2018-08-28T00:36:02.956Z,97607.96
2018-08-28T00:38:31.598Z,97608.81
2018-08-28T00:41:00.288Z,97606.05
2018-08-28T00:43:28.871Z,97617.55
2018-08-28T00:45:57.455Z,97611.12
2018-08-28T00:48:26.131Z,97613.38
2018-08-28T00:50:54.715Z,97611.64
2018-08-28T00:53:23.251Z,97615.49
2018-08-28T00:55:51.905Z,97606.70
2018-08-28T00:58:20.456Z,97610.36
2018-08-28T01:00:49.012Z,97618.38
2018-08-28T01:03:17.716Z,97615.95
2018-08-28T01:05:46.296Z,97621.38
2018-08-28T01:08:14.964Z,97618.94
2018-08-28T01:10:43.595Z,97622.34
2018-08-28T01:13:12.137Z,97617.52
2018-08-28T01:15:40.712Z,97616.52
2018-08-28T01:18:09.759Z,97619.55
2018-08-28T01:20:38.320Z,97620.63
2018-08-28T01:23:06.888Z,97621.83
2018-08-28T01:25:35.467Z,97616.95
2018-08-28T01:28:04.036Z,97616.72
2018-08-28T01:30:34.516Z,97610.93
2018-08-28T01:33:06.073Z,97611.52
2018-08-28T01:35:35.171Z,97615.89
2018-08-28T01:38:03.878Z,97612.92
2018-08-28T01:40:32.449Z,97610.27
2018-08-28T01:43:01.696Z,97602.37
2018-08-28T01:45:30.323Z,97612.63
2018-08-28T01:47:58.852Z,97612.92
2018-08-28T01:50:27.491Z,97614.09
2018-08-28T01:52:56.060Z,97602.65
2018-08-28T01:55:24.604Z,97607.05
2018-08-28T01:57:53.563Z,97608.00
2018-08-28T02:00:22.124Z,97609.30
2018-08-28T02:02:50.735Z,97608.84
2018-08-28T02:05:19.315Z,97608.20
2018-08-28T02:07:47.859Z,97599.28
2018-08-28T02:10:16.424Z,97594.61
2018-08-28T02:12:45.012Z,97592.49
2018-08-28T02:15:13.566Z,97597.73
2018-08-28T02:17:42.109Z,97600.17
2018-08-28T02:20:10.959Z,97601.20
2018-08-28T02:22:39.526Z,97602.98
2018-08-28T02:25:08.508Z,97609.02
2018-08-28T02:27:37.903Z,97598.42
2018-08-28T02:30:06.513Z,97599.63
2018-08-28T02:32:35.064Z,97607.40
2018-08-28T02:35:03.643Z,97604.11
2018-08-28T02:37:32.220Z,97610.98
2018-08-28T02:40:00.784Z,97605.02
2018-08-28T02:42:29.572Z,97608.86
2018-08-28T02:44:58.122Z,97618.86
2018-08-28T02:47:26.675Z,97621.69
2018-08-28T02:49:55.263Z,97619.88
2018-08-28T02:52:23.852Z,97613.27
2018-08-28T02:54:52.426Z,97620.13
2018-08-28T02:57:21.140Z,97620.59
2018-08-28T02:59:49.704Z,97620.59
2018-08-28T03:02:18.336Z,97622.52
2018-08-28T03:04:47.394Z,97628.84
2018-08-28T03:07:15.959Z,97628.02
2018-08-28T03:09:44.539Z,97627.00
2018-08-28T03:12:13.243Z,97626.73
2018-08-28T03:14:41.796Z,97625.00
2018-08-28T03:17:10.347Z,97625.34
2018-08-28T03:19:38.987Z,97626.35
2018-08-28T03:22:07.617Z,97628.45
2018-08-28T03:24:36.196Z,97629.38
2018-08-28T03:27:04.884Z,97633.39
2018-08-28T03:29:33.445Z,97632.86
2018-08-28T03:32:01.989Z,97626.61
2018-08-28T03:34:30.908Z,97629.02
2018-08-28T03:36:59.471Z,97636.14
2018-08-28T03:39:28.043Z,97635.23
2018-08-28T03:41:56.763Z,97640.81
2018-08-28T03:44:25.348Z,97640.81
2018-08-28T03:46:53.923Z,97645.12
2018-08-28T03:49:22.583Z,97647.22
2018-08-28T03:51:51.136Z,97650.25
2018-08-28T03:54:19.696Z,97647.49
2018-08-28T03:56:48.511Z,97653.36
2018-08-28T03:59:17.079Z,97649.52
2018-08-28T04:01:45.658Z,97653.17
2018-08-28T04:04:14.359Z,97651.71
2018-08-28T04:06:42.987Z,97652.15
2018-08-28T04:09:11.803Z,97654.19
2018-08-28T04:11:40.705Z,97653.61
2018-08-28T04:14:09.394Z,97653.05
2018-08-28T04:16:38.048Z,97656.98
2018-08-28T04:19:07.167Z,97656.05
2018-08-28T04:21:35.858Z,97651.55
2018-08-28T04:24:04.403Z,97658.41
2018-08-28T04:26:33.328Z,97665.43
2018-08-28T04:29:01.949Z,97665.61
2018-08-28T04:31:30.464Z,97663.56
2018-08-28T04:33:59.071Z,97665.12
2018-08-28T04:36:27.636Z,97666.78
2018-08-28T04:38:56.227Z,97667.81
2018-08-28T04:41:24.803Z,97675.22
2018-08-28T04:43:53.524Z,97678.29
2018-08-28T04:46:22.075Z,97681.25
2018-08-28T04:48:51.074Z,97677.23
2018-08-28T04:51:19.579Z,97686.80
2018-08-28T04:53:48.139Z,97690.58
2018-08-28T04:56:17.051Z,97691.66
2018-08-28T04:58:45.587Z,97692.03
2018-08-28T05:01:14.148Z,97692.09
2018-08-28T05:03:43.115Z,97697.63
2018-08-28T05:06:11.680Z,97700.81
2018-08-28T05:08:40.358Z,97700.52
2018-08-28T05:11:08.951Z,97696.83
2018-08-28T05:13:37.552Z,97698.70
2018-08-28T05:16:06.163Z,97702.88
2018-08-28T05:18:34.932Z,97704.16
2018-08-28T05:21:03.814Z,97698.25
2018-08-28T05:23:32.364Z,97697.04
2018-08-28T05:26:01.192Z,97696.48
2018-08-28T05:28:29.835Z,97694.69
2018-08-28T05:30:58.400Z,97689.48
2018-08-28T05:33:27.099Z,97693.36
2018-08-28T05:35:55.668Z,97692.19
2018-08-28T05:38:24.227Z,97696.03
2018-08-28T05:40:52.816Z,97702.26
2018-08-28T05:43:21.364Z,97699.87
2018-08-28T05:45:49.919Z,97696.56
2018-08-28T05:48:18.852Z,97702.17
2018-08-28T05:50:47.412Z,97699.16
2018-08-28T05:53:15.960Z,97693.17
2018-08-28T05:55:44.668Z,97701.41
2018-08-28T05:58:13.215Z,97694.55
2018-08-28T06:00:41.789Z,97694.13
2018-08-28T06:03:10.644Z,97690.01
2018-08-28T06:05:39.170Z,97695.61
2018-08-28T06:08:07.815Z,97699.92
2018-08-28T06:10:36.760Z,97700.94
2018-08-28T06:13:05.348Z,97707.91
2018-08-28T06:15:33.963Z,97705.28
2018-08-28T06:18:02.653Z,97710.06
2018-08-28T06:20:31.223Z,97714.61
2018-08-28T06:22:59.811Z,97711.67
2018-08-28T06:25:28.508Z,97713.41
2018-08-28T06:27:57.068Z,97713.23
2018-08-28T06:30:25.671Z,97706.44
2018-08-28T06:32:54.231Z,97706.14
2018-08-28T06:35:22.794Z,97708.81
2018-08-28T06:37:51.352Z,97706.14
2018-08-28T06:40:20.286Z,97705.01
2018-08-28T06:42:48.834Z,97706.36
2018-08-28T06:45:17.427Z,97709.45
2018-08-28T06:47:46.019Z,97704.50
2018-08-28T06:50:14.555Z,97702.96
2018-08-28T06:52:43.099Z,97703.09
2018-08-28T06:55:11.823Z,97712.17
2018-08-28T06:57:40.375Z,97708.25
2018-08-28T07:00:09.131Z,97705.34
2018-08-28T07:02:38.307Z,97701.64
2018-08-28T07:05:07.033Z,97703.98
2018-08-28T07:07:35.571Z,97705.20
2018-08-28T07:10:04.286Z,97703.93
2018-08-28T07:12:32.884Z,97710.05
2018-08-28T07:17:29.147Z,97702.34
2018-08-28T07:19:57.973Z,97699.00
2018-08-28T07:22:27.828Z,97702.48
2018-08-28T07:24:57.056Z,97693.34
2018-08-28T07:27:25.622Z,97696.12
2018-08-28T07:29:54.191Z,97695.27
2018-08-28T07:32:22.776Z,97692.38
2018-08-28T07:34:51.339Z,97698.00
2018-08-28T07:37:20.928Z,97693.98
2018-08-28T07:39:49.672Z,97688.59
2018-08-28T07:42:18.237Z,97684.64
2018-08-28T07:44:46.791Z,97690.42
2018-08-28T07:47:15.528Z,97687.48
2018-08-28T07:49:44.095Z,97687.03
2018-08-28T07:52:12.824Z,97686.91
2018-08-28T07:54:41.635Z,97684.02
2018-08-28T07:57:10.179Z,97691.95
2018-08-28T07:59:38.717Z,97686.78
2018-08-28T08:02:07.503Z,97688.18
2018-08-28T08:04:36.639Z,97692.80
2018-08-28T08:07:05.764Z,97697.63
2018-08-28T08:09:34.348Z,97699.56
2018-08-28T08:12:02.928Z,97697.25
2018-08-28T08:14:31.475Z,97697.40
2018-08-28T08:17:00.323Z,97697.77
2018-08-28T08:19:28.872Z,97703.82
2018-08-28T08:21:57.423Z,97703.41
2018-08-28T08:24:26.419Z,97704.45
2018-08-28T08:26:54.981Z,97706.47
2018-08-28T08:29:23.535Z,97699.77
2018-08-28T08:31:52.179Z,97705.56
2018-08-28T08:34:20.731Z,97707.72
2018-08-28T08:36:49.359Z,97709.55
2018-08-28T08:39:18.227Z,97703.15
2018-08-28T08:41:48.133Z,97707.75
2018-08-28T08:44:17.160Z,97701.47
2018-08-28T08:46:46.262Z,97701.93
2018-08-28T08:49:15.314Z,97704.21
2018-08-28T08:51:44.386Z,97701.30
2018-08-28T08:54:13.861Z,97705.09
2018-08-28T08:56:42.899Z,97701.90
2018-08-28T08:59:11.956Z,97691.03
2018-08-28T09:01:41.112Z,97692.49
2018-08-28T09:04:10.171Z,97689.31
2018-08-28T09:06:39.228Z,97689.20
2018-08-28T09:09:08.356Z,97691.70
2018-08-28T09:11:36.920Z,97684.73
2018-08-28T09:14:05.475Z,97685.23
2018-08-28T09:16:34.096Z,97683.11
2018-08-28T09:19:02.987Z,97684.91
2018-08-28T09:21:31.663Z,97682.25
2018-08-28T09:24:00.252Z,97685.03
2018-08-28T09:26:28.787Z,97677.03
2018-08-28T09:28:57.327Z,97671.87
2018-08-28T09:31:26.396Z,97678.06
2018-08-28T09:33:55.153Z,97674.80
2018-08-28T09:36:23.703Z,97673.98
2018-08-28T09:38:52.578Z,97671.67
2018-08-28T09:41:21.103Z,97671.27
2018-08-28T09:43:49.721Z,97674.08
2018-08-28T09:46:18.615Z,97672.93
2018-08-28T09:48:47.163Z,97667.55
2018-08-28T09:51:15.715Z,97664.48
2018-08-28T09:53:44.300Z,97664.75
2018-08-28T09:56:12.868Z,97660.88
2018-08-28T09:58:41.432Z,97651.70
2018-08-28T10:01:15.635Z,97643.21
2018-08-28T10:03:44.189Z,97647.88
2018-08-28T10:06:12.764Z,97648.99
2018-08-28T10:08:41.551Z,97651.52
2018-08-28T10:11:10.150Z,97650.37
2018-08-28T10:13:38.744Z,97647.26
2018-08-28T10:16:07.385Z,97640.06
2018-08-28T10:18:35.935Z,97631.03
2018-08-28T10:21:04.496Z,97629.53
2018-08-28T10:23:33.075Z,97627.53
2018-08-28T10:26:01.688Z,97628.05
2018-08-28T10:28:30.228Z,97628.74
2018-08-28T10:30:59.168Z,97624.32
2018-08-28T10:33:27.823Z,97618.78
2018-08-28T10:35:56.496Z,97620.30
2018-08-28T10:38:25.323Z,97616.48
2018-08-28T10:40:53.991Z,97617.36
2018-08-28T10:43:22.540Z,97616.61
2018-08-28T10:45:51.848Z,97625.84
2018-08-28T10:48:20.492Z,97613.36
2018-08-28T10:50:49.108Z,97615.46
2018-08-28T10:53:17.819Z,97623.97
2018-08-28T10:55:46.377Z,97620.23
2018-08-28T10:58:14.952Z,97618.98
2018-08-28T11:00:43.747Z,97613.48
2018-08-28T11:03:12.447Z,97620.56
2018-08-28T11:05:41.010Z,97610.53
2018-08-28T11:08:09.886Z,97611.15
2018-08-28T11:10:38.451Z,97604.38
2018-08-28T11:13:07.129Z,97610.73
2018-08-28T11:15:35.718Z,97608.59
2018-08-28T11:18:04.288Z,97603.53
2018-08-28T11:20:32.843Z,97599.30
2018-08-28T11:23:02.260Z,97598.53
2018-08-28T11:25:30.788Z,97589.48
2018-08-28T11:27:59.347Z,97593.33
2018-08-28T11:30:28.399Z,97597.85
2018-08-28T11:32:57.151Z,97589.34
2018-08-28T11:35:25.828Z,97586.72
2018-08-28T11:37:54.727Z,97592.73
2018-08-28T11:40:23.306Z,97592.27
2018-08-28T11:42:51.987Z,97586.73
2018-08-28T11:45:20.584Z,97579.98
2018-08-28T11:47:49.172Z,97579.66
2018-08-28T11:50:17.835Z,97585.28
2018-08-28T11:52:46.549Z,97579.38
2018-08-28T11:55:15.084Z,97575.95
2018-08-28T11:57:43.783Z,97571.48
2018-08-28T12:00:12.639Z,97573.25
2018-08-28T12:02:41.205Z,97574.16
2018-08-28T12:05:10.001Z,97571.07
2018-08-28T12:07:38.876Z,97567.81
2018-08-28T12:10:08.534Z,97566.84
2018-08-28T12:12:37.480Z,97569.59
2018-08-28T12:15:06.390Z,97565.86
2018-08-28T12:17:34.956Z,97561.32
2018-08-28T12:20:03.600Z,97565.38
2018-08-28T12:22:32.498Z,97555.78
2018-08-28T12:25:01.055Z,97552.68
2018-08-28T12:27:29.622Z,97547.95
2018-08-28T12:29:58.651Z,97543.56
2018-08-28T12:32:27.207Z,97544.06
2018-08-28T12:34:55.871Z,97543.00
2018-08-28T12:37:24.668Z,97540.59
2018-08-28T12:39:53.263Z,97536.31
2018-08-28T12:42:21.815Z,97533.38
2018-08-28T12:44:50.917Z,97531.64
2018-08-28T12:47:19.464Z,97519.31
2018-08-28T12:49:48.038Z,97526.47
2018-08-28T12:52:16.727Z,97524.05
2018-08-28T12:54:45.271Z,97517.25
2018-08-28T12:57:13.935Z,97513.19
2018-08-28T12:59:42.556Z,97514.66
2018-08-28T13:02:11.205Z,97512.97
2018-08-28T13:04:39.684Z,97518.23
2018-08-28T13:07:08.443Z,97515.23
2018-08-28T13:09:36.976Z,97512.31
2018-08-28T13:12:05.563Z,97513.61
2018-08-28T13:14:34.349Z,97508.26
2018-08-28T13:17:02.843Z,97507.41
2018-08-28T13:19:31.392Z,97504.98
2018-08-28T13:22:00.282Z,97501.84
2018-08-28T13:24:28.828Z,97498.16
2018-08-28T13:26:57.385Z,97501.32
2018-08-28T13:29:26.060Z,97497.86
2018-08-28T13:31:54.607Z,97501.99
2018-08-28T13:34:23.179Z,97500.51
2018-08-28T13:36:51.897Z,97496.92
2018-08-28T13:39:20.460Z,97496.43
2018-08-28T13:41:49.025Z,97498.67
2018-08-28T13:44:17.940Z,97494.63
2018-08-28T13:46:46.492Z,97490.55
2018-08-28T13:49:15.072Z,97486.81
2018-08-28T13:51:43.740Z,97492.65
2018-08-28T13:54:12.329Z,97489.17
2018-08-28T13:56:40.872Z,97486.03
2018-08-28T13:59:09.476Z,97480.17
2018-08-28T14:01:38.016Z,97482.98
2018-08-28T14:04:06.572Z,97483.17
2018-08-28T14:06:35.271Z,97478.16
2018-08-28T14:09:04.828Z,97472.14
2018-08-28T14:11:33.428Z,97467.92
2018-08-28T14:14:02.460Z,97473.47
2018-08-28T14:16:30.847Z,97464.36
2018-08-28T14:18:59.423Z,97463.58
2018-08-28T14:21:28.028Z,97457.37
2018-08-28T14:23:56.927Z,97454.77
2018-08-28T14:26:25.498Z,97453.92
2018-08-28T14:28:54.785Z,97452.81
2018-08-28T14:31:23.283Z,97450.38
2018-08-28T14:33:53.426Z,97454.27
2018-08-28T14:36:22.516Z,97449.39
2018-08-28T14:38:51.068Z,97442.41
2018-08-28T14:41:19.631Z,97445.66
2018-08-28T14:43:48.237Z,97443.44
2018-08-28T14:46:16.787Z,97444.59
2018-08-28T14:48:45.339Z,97433.84
2018-08-28T14:51:13.999Z,97429.39
2018-08-28T14:53:42.563Z,97425.64
2018-08-28T14:56:11.127Z,97420.11
2018-08-28T14:58:39.835Z,97428.30
2018-08-28T15:01:08.413Z,97419.51
2018-08-28T15:03:36.975Z,97430.26
2018-08-28T15:06:05.610Z,97423.06
2018-08-28T15:08:34.692Z,97424.68
2018-08-28T15:11:03.740Z,97424.20
2018-08-28T15:13:32.423Z,97424.86
2018-08-28T15:16:00.993Z,97430.89
2018-08-28T15:18:29.580Z,97433.17
2018-08-28T15:20:58.219Z,97426.17
2018-08-28T15:23:27.075Z,97430.50
2018-08-28T15:25:55.635Z,97426.91
2018-08-28T15:28:24.303Z,97422.80
2018-08-28T15:30:52.904Z,97423.91
2018-08-28T15:33:21.471Z,97426.96
2018-08-28T15:35:50.584Z,97424.67
2018-08-28T15:38:19.144Z,97416.89
2018-08-28T15:40:47.700Z,97420.29
2018-08-28T15:43:16.671Z,97414.44
2018-08-28T15:45:45.244Z,97416.55
2018-08-28T15:48:13.788Z,97413.77
2018-08-28T15:50:42.452Z,97414.72
2018-08-28T15:53:11.016Z,97416.02
2018-08-28T15:55:39.601Z,97411.16
2018-08-28T15:58:08.323Z,97413.73
2018-08-28T16:00:36.863Z,97408.67
2018-08-28T16:03:05.428Z,97406.73
2018-08-28T16:05:34.008Z,97406.19
2018-08-28T16:08:02.583Z,97405.36
2018-08-28T16:10:31.132Z,97407.80
2018-08-28T16:12:59.804Z,97408.95
2018-08-28T16:15:28.365Z,97407.31
2018-08-28T16:17:57.300Z,97401.41
2018-08-28T16:20:25.988Z,97404.58
2018-08-28T16:22:57.844Z,97403.93
2018-08-28T16:25:26.432Z,97403.15
2018-08-28T16:27:55.053Z,97398.26
2018-08-28T16:30:23.622Z,97400.69
2018-08-28T16:32:52.220Z,97393.02
2018-08-28T16:35:20.895Z,97387.34
2018-08-28T16:37:49.459Z,97382.93
2018-08-28T16:40:18.114Z,97378.69
2018-08-28T16:42:46.677Z,97379.34
2018-08-28T16:45:15.247Z,97386.31
2018-08-28T16:47:44.231Z,97382.07
2018-08-28T16:50:12.820Z,97378.79
2018-08-28T16:52:41.356Z,97376.84
2018-08-28T16:55:10.042Z,97376.02
2018-08-28T16:57:38.603Z,97374.23
2018-08-28T17:00:08.088Z,97369.82
2018-08-28T17:02:36.740Z,97364.93
2018-08-28T17:05:05.395Z,97366.67
2018-08-28T17:07:33.965Z,97367.50
2018-08-28T17:10:02.784Z,97364.91
2018-08-28T17:12:31.345Z,97365.67
2018-08-28T17:14:59.957Z,97362.08
2018-08-28T17:17:28.518Z,97366.97
2018-08-28T17:19:57.128Z,97369.45
2018-08-28T17:22:25.732Z,97368.76
2018-08-28T17:24:54.407Z,97370.56
2018-08-28T17:27:23.295Z,97367.45
2018-08-28T17:29:51.908Z,97370.82
2018-08-28T17:32:20.795Z,97367.39
2018-08-28T17:34:49.336Z,97370.25
2018-08-28T17:37:17.912Z,97370.55
2018-08-28T17:39:46.487Z,97374.08
2018-08-28T17:42:15.049Z,97370.62
2018-08-28T17:44:43.595Z,97373.33
2018-08-28T17:47:12.171Z,97376.33
2018-08-28T17:49:40.787Z,97375.55
2018-08-28T17:52:09.339Z,97386.21
2018-08-28T17:54:37.995Z,97383.55
2018-08-28T17:57:06.757Z,97376.40
2018-08-28T17:59:35.224Z,97382.35
2018-08-28T18:02:04.226Z,97379.39
2018-08-28T18:04:32.788Z,97381.74
2018-08-28T18:07:01.394Z,97375.02
2018-08-28T18:09:30.384Z,97378.87
2018-08-28T18:11:58.944Z,97380.06
2018-08-28T18:14:27.544Z,97379.16
2018-08-28T18:16:56.361Z,97382.22
2018-08-28T18:19:25.057Z,97387.19
2018-08-28T18:21:53.608Z,97388.33
2018-08-28T18:24:23.446Z,97383.05
2018-08-28T18:26:52.021Z,97385.38
2018-08-28T18:29:20.568Z,97386.48
2018-08-28T18:31:49.484Z,97386.37
2018-08-28T18:34:18.027Z,97388.52
2018-08-28T18:36:46.580Z,97382.58
2018-08-28T18:39:15.193Z,97381.69
2018-08-28T18:41:43.976Z,97387.59
2018-08-28T18:44:12.572Z,97389.91
2018-08-28T18:46:41.157Z,97395.91
2018-08-28T18:49:11.106Z,97393.87
2018-08-28T18:51:40.156Z,97396.55
2018-08-28T18:54:08.868Z,97399.85
2018-08-28T18:56:37.431Z,97393.33
2018-08-28T18:59:06.007Z,97387.13
2018-08-28T19:01:34.700Z,97386.09
2018-08-28T19:04:04.020Z,97387.41
2018-08-28T19:06:32.576Z,97394.41
2018-08-28T19:09:01.307Z,97401.17
2018-08-28T19:11:29.845Z,97398.56
2018-08-28T19:13:58.401Z,97396.63
2018-08-28T19:16:27.151Z,97394.60
2018-08-28T19:18:55.703Z,97394.56
2018-08-28T19:21:24.270Z,97393.44
2018-08-28T19:23:53.135Z,97392.09
2018-08-28T19:26:21.703Z,97391.06
2018-08-28T19:28:50.487Z,97384.24
2018-08-28T19:31:19.399Z,97386.15
2018-08-28T19:33:48.072Z,97382.27
2018-08-28T19:36:16.651Z,97385.64
2018-08-28T19:38:45.396Z,97386.63
2018-08-28T19:41:13.958Z,97385.09
2018-08-28T19:43:42.523Z,97380.86
2018-08-28T19:46:11.205Z,97377.91
2018-08-28T19:48:39.772Z,97366.91
2018-08-28T19:51:08.343Z,97380.69
2018-08-28T19:53:37.205Z,97374.39
2018-08-28T19:56:05.831Z,97375.41
2018-08-28T19:58:34.411Z,97366.98
2018-08-28T20:01:03.072Z,97372.05
2018-08-28T20:03:31.667Z,97370.00
2018-08-28T20:06:00.233Z,97364.98
2018-08-28T20:08:28.852Z,97370.14
2018-08-28T20:10:57.417Z,97368.06
2018-08-28T20:13:25.979Z,97367.96
2018-08-28T20:15:54.731Z,97366.56
2018-08-28T20:18:23.287Z,97361.19
2018-08-28T20:20:51.941Z,97361.19
2018-08-28T20:23:20.642Z,97360.14
2018-08-28T20:25:49.206Z,97359.64
2018-08-28T20:28:17.763Z,97359.19
2018-08-28T20:30:46.543Z,97360.69
2018-08-28T20:33:15.099Z,97361.73
2018-08-28T20:35:43.664Z,97357.17
2018-08-28T20:38:12.607Z,97358.47
2018-08-28T20:40:41.176Z,97358.47
2018-08-28T20:43:09.751Z,97355.70
2018-08-28T20:45:38.415Z,97350.22
2018-08-28T20:48:07.132Z,97352.36
2018-08-28T20:50:35.783Z,97359.52
2018-08-28T20:53:04.527Z,97351.95
2018-08-28T20:55:33.104Z,97350.22
2018-08-28T20:58:01.753Z,97342.75
2018-08-28T21:00:31.203Z,97343.70
2018-08-28T21:02:59.868Z,97334.70
2018-08-28T21:05:29.751Z,97335.05
2018-08-28T21:08:00.445Z,97330.63
2018-08-28T21:10:29.323Z,97326.05
2018-08-28T21:12:58.029Z,97327.22
2018-08-28T21:15:26.999Z,97327.34
2018-08-28T21:17:55.556Z,97320.06
2018-08-28T21:20:24.291Z,97320.31
2018-08-28T21:22:52.977Z,97316.45
2018-08-28T21:25:21.545Z,97324.29
2018-08-28T21:27:50.103Z,97317.73
2018-08-28T21:30:18.690Z,97319.27
2018-08-28T21:32:47.288Z,97314.34
2018-08-28T21:35:15.883Z,97314.02
2018-08-28T21:37:44.507Z,97312.03
2018-08-28T21:40:13.079Z,97311.48
2018-08-28T21:42:41.639Z,97316.51
2018-08-28T21:45:10.540Z,97309.48
2018-08-28T21:47:39.215Z,97304.57
2018-08-28T21:50:07.784Z,97300.96
2018-08-28T21:52:36.449Z,97296.98
2018-08-28T21:55:05.023Z,97298.41
2018-08-28T21:57:33.696Z,97291.25
2018-08-28T22:00:02.536Z,97293.27
2018-08-28T22:02:31.215Z,97289.65
2018-08-28T22:04:59.783Z,97284.72
2018-08-28T22:07:33.619Z,97286.83
2018-08-28T22:10:02.307Z,97282.51
2018-08-28T22:12:30.871Z,97281.56
2018-08-28T22:14:59.774Z,97281.93
2018-08-28T22:17:28.958Z,97284.97
2018-08-28T22:19:57.531Z,97282.70
2018-08-28T22:22:26.214Z,97280.59
2018-08-28T22:24:54.939Z,97278.95
2018-08-28T22:27:23.772Z,97280.61
2018-08-28T22:29:52.660Z,97282.35
2018-08-28T22:32:21.335Z,97278.22
2018-08-28T22:34:49.907Z,97282.77
2018-08-28T22:37:18.901Z,97278.80
2018-08-28T22:39:47.524Z,97273.53
2018-08-28T22:42:16.080Z,97272.36
2018-08-28T22:44:44.695Z,97268.23
2018-08-28T22:47:13.256Z,97257.85
2018-08-28T22:49:42.020Z,97257.39
2018-08-28T22:52:10.761Z,97261.25
2018-08-28T22:54:39.576Z,97259.59
2018-08-28T22:57:08.652Z,97255.94
2018-08-28T22:59:37.347Z,97251.94
2018-08-28T23:02:06.028Z,97252.16
2018-08-28T23:04:35.174Z,97252.75
2018-08-28T23:07:03.860Z,97252.66
2018-08-28T23:09:32.443Z,97251.00
2018-08-28T23:12:00.991Z,97246.54
2018-08-28T23:14:29.595Z,97248.40
2018-08-28T23:16:58.397Z,97245.23
2018-08-28T23:19:27.335Z,97255.13
2018-08-28T23:21:56.459Z,97259.56
2018-08-28T23:24:25.760Z,97254.64
2018-08-28T23:26:54.803Z,97257.21
2018-08-28T23:29:23.896Z,97248.08
2018-08-28T23:31:52.971Z,97254.48
2018-08-28T23:34:21.784Z,97252.72
2018-08-28T23:36:50.412Z,97255.20
2018-08-28T23:39:18.967Z,97256.38
2018-08-28T23:41:47.548Z,97255.03
2018-08-28T23:44:16.224Z,97250.45
2018-08-28T23:46:44.796Z,97247.95
2018-08-28T23:49:13.411Z,97245.59
2018-08-28T23:51:44.527Z,97253.84
2018-08-28T23:54:13.131Z,97249.63
2018-08-28T23:56:41.687Z,97247.43
2018-08-28T23:59:10.547Z,97248.47
